Strona główna
METAR-TAF:

METAR-TAF

Lotnisko :

Port lotniczy Khon Kaen

Khon Kaen, Tajlandia

Szerokość geograficzna: 16-26N, Długość geograficzna: 102-50E, wysokość: 165 m

Aktualna obserwacja pogody

Raport powstał 1 godzina i 4 minut temu, godzina 10:00 UTC
Wiatr 6 kt od południowy zachód, zmienny między południowo-południowy wschód i zachód
Temperatura 33°C
Wilgotność 56%
Ciśnienie 1003 hPa
Widzialność 10 km lub więcej
Rozproszone chmury na wysokości 2500 ft

METAR: VTUK 181000Z 23006KT 150V260 9999 SCT025 33/23 Q1003 NOSIG

czas: 18:04 (11:04 UTC)

Prognoza

Raport powstał 6 godziny i 4 minut temu, godzina 05:00 UTC
Prognoza ważna od 18 godzina 06 UTC do 19 godzina 06 UTC
Wiatr 6 kt od południowo-południowy zachód
Widzialność 10 km lub więcej
Rozproszone chmury na wysokości 2500 ft

TAF: VTUK 180500Z 1806/1906 21006KT 9999 SCT025

Obserwacja i prognoza pogody dla ponad 4000 lotnisk (raport METAR i TAF).

Dostępne stacje oznaczono żółtymi i czerwonymi punktami na mapie.

Najedź kursorem aby zobaczyć nazwę stacji.

Kliknij aby zobaczyć obserwacje i prognozy pogody.

Aby zmienić mapę: kliknij na zielony przycisk z czarnym krzyżykiem, aby powiększyć; na zielony przycisk z myślnikiem, aby pomniejszyć; na zielone strzałki, aby przejść do map sąsiednich.


METAR-TAF: